createdAt,value
2019-01-20T00:00:40.447Z,-1.49
2019-01-20T00:03:09.086Z,-1.64
2019-01-20T00:05:38.098Z,-1.81
2019-01-20T00:08:07.089Z,-1.90
2019-01-20T00:10:35.714Z,-2.00
2019-01-20T00:13:04.580Z,-2.02
2019-01-20T00:15:36.427Z,-1.89
2019-01-20T00:18:05.400Z,-2.01
2019-01-20T00:20:53.587Z,-2.05
2019-01-20T00:23:22.286Z,-2.01
2019-01-20T00:25:50.974Z,-1.92
2019-01-20T00:28:19.992Z,-1.88
2019-01-20T00:30:48.697Z,-1.92
2019-01-20T00:33:17.680Z,-1.95
2019-01-20T00:35:46.972Z,-1.96
2019-01-20T00:38:15.665Z,-1.90
2019-01-20T00:40:44.656Z,-1.77
2019-01-20T00:43:13.338Z,-1.64
2019-01-20T00:45:42.264Z,-1.67
2019-01-20T00:48:11.226Z,-1.57
2019-01-20T00:50:40.220Z,-1.49
2019-01-20T00:53:09.416Z,-1.41
2019-01-20T00:55:38.141Z,-1.47
2019-01-20T00:58:07.217Z,-1.62
2019-01-20T01:00:36.298Z,-1.63
2019-01-20T01:03:05.394Z,-1.73
2019-01-20T01:05:34.489Z,-1.61
2019-01-20T01:08:03.585Z,-1.57
2019-01-20T01:10:32.573Z,-1.52
2019-01-20T01:13:03.204Z,-1.68
2019-01-20T01:15:32.317Z,-1.67
2019-01-20T01:18:01.197Z,-1.60
2019-01-20T01:20:30.301Z,-1.49
2019-01-20T01:22:59.295Z,-1.51
2019-01-20T01:25:28.289Z,-1.60
2019-01-20T01:27:56.981Z,-1.40
2019-01-20T01:30:26.588Z,-1.31
2019-01-20T01:32:55.599Z,-1.35
2019-01-20T01:35:24.288Z,-1.26
2019-01-20T01:37:53.356Z,-1.29
2019-01-20T01:40:22.089Z,-1.24
2019-01-20T01:42:51.041Z,-1.33
2019-01-20T01:45:21.157Z,-1.34
2019-01-20T01:47:50.457Z,-1.31
2019-01-20T01:50:19.946Z,-1.53
2019-01-20T01:52:48.857Z,-1.44
2019-01-20T01:55:17.584Z,-1.52
2019-01-20T01:57:46.306Z,-1.36
2019-01-20T02:00:17.881Z,-1.20
2019-01-20T02:02:46.613Z,-1.18
2019-01-20T02:05:15.771Z,-1.51
2019-01-20T02:07:44.494Z,-1.47
2019-01-20T02:10:15.584Z,-1.45
2019-01-20T02:12:44.424Z,-1.61
2019-01-20T02:15:14.422Z,-1.68
2019-01-20T02:17:43.400Z,-1.63
2019-01-20T02:20:14.533Z,-1.62
2019-01-20T02:22:43.949Z,-1.72
2019-01-20T02:25:12.755Z,-1.75
2019-01-20T02:27:41.430Z,-1.66
2019-01-20T02:30:14.488Z,-1.41
2019-01-20T02:32:43.513Z,-1.36
2019-01-20T02:35:12.179Z,-1.49
2019-01-20T02:37:41.280Z,-1.62
2019-01-20T02:40:11.498Z,-1.58
2019-01-20T02:42:40.160Z,-1.44
2019-01-20T02:45:10.523Z,-1.60
2019-01-20T02:47:39.415Z,-1.44
2019-01-20T02:50:10.489Z,-1.49
2019-01-20T02:52:39.863Z,-1.64
2019-01-20T02:55:08.961Z,-1.76
2019-01-20T02:57:37.954Z,-1.81
2019-01-20T03:00:10.573Z,-1.83
2019-01-20T03:02:39.523Z,-1.73
2019-01-20T03:05:09.812Z,-1.79
2019-01-20T03:07:39.046Z,-1.58
2019-01-20T03:10:08.533Z,-1.66
2019-01-20T03:12:37.859Z,-1.70
2019-01-20T03:15:07.358Z,-1.75
2019-01-20T03:17:36.431Z,-1.51
2019-01-20T03:20:07.962Z,-1.67
2019-01-20T03:22:36.896Z,-1.52
2019-01-20T03:25:07.731Z,-1.55
2019-01-20T03:27:36.398Z,-1.45
2019-01-20T03:30:07.348Z,-1.50
2019-01-20T03:32:36.452Z,-1.46
2019-01-20T03:35:06.163Z,-1.28
2019-01-20T03:37:35.156Z,-1.42
2019-01-20T03:40:05.338Z,-1.46
2019-01-20T03:42:33.992Z,-1.70
2019-01-20T03:45:03.060Z,-1.81
2019-01-20T03:47:32.058Z,-1.83
2019-01-20T03:50:01.081Z,-1.76
2019-01-20T03:52:30.038Z,-1.76
2019-01-20T03:54:58.744Z,-1.80
2019-01-20T03:57:27.644Z,-1.80
2019-01-20T03:59:56.622Z,-1.80
2019-01-20T04:02:25.779Z,-1.82
2019-01-20T04:04:54.931Z,-1.86
2019-01-20T04:07:23.599Z,-1.76
2019-01-20T04:09:52.488Z,-1.84
2019-01-20T04:12:21.237Z,-1.88
2019-01-20T04:14:50.271Z,-1.80
2019-01-20T04:17:18.928Z,-1.74
2019-01-20T04:19:47.595Z,-1.79
2019-01-20T04:22:16.317Z,-1.62
2019-01-20T04:24:45.220Z,-1.59
2019-01-20T04:27:14.214Z,-1.46
2019-01-20T04:29:42.859Z,-1.24
2019-01-20T04:32:11.501Z,-1.51
2019-01-20T04:34:40.475Z,-1.60
2019-01-20T04:37:09.776Z,-1.50
2019-01-20T04:39:38.864Z,-1.62
2019-01-20T04:42:07.532Z,-1.47
2019-01-20T04:44:36.454Z,-1.60
2019-01-20T04:47:05.189Z,-1.71
2019-01-20T04:49:33.837Z,-1.84
2019-01-20T04:52:02.821Z,-1.92
2019-01-20T04:54:31.485Z,-1.89
2019-01-20T04:57:00.133Z,-1.83
2019-01-20T04:59:28.903Z,-1.84
2019-01-20T05:01:57.882Z,-1.63
2019-01-20T05:04:26.765Z,-1.71
2019-01-20T05:06:55.412Z,-1.74
2019-01-20T05:09:24.446Z,-1.78
2019-01-20T05:11:53.153Z,-1.77
2019-01-20T05:14:22.021Z,-1.85
2019-01-20T05:16:51.017Z,-1.85
2019-01-20T05:19:20.015Z,-1.72
2019-01-20T05:21:49.000Z,-1.82
2019-01-20T05:24:17.643Z,-1.79
2019-01-20T05:26:46.304Z,-1.64
2019-01-20T05:29:15.286Z,-1.67
2019-01-20T05:31:44.264Z,-1.71
2019-01-20T05:34:13.256Z,-1.85
2019-01-20T05:36:42.263Z,-1.90
2019-01-20T05:39:11.554Z,-1.93
2019-01-20T05:41:40.850Z,-2.04
2019-01-20T05:44:09.509Z,-2.02
2019-01-20T05:46:38.426Z,-1.93
2019-01-20T05:49:07.424Z,-1.86
2019-01-20T05:51:36.422Z,-1.84
2019-01-20T05:54:05.152Z,-1.94
2019-01-20T05:56:33.804Z,-1.92
2019-01-20T05:59:02.782Z,-1.85
2019-01-20T06:01:31.787Z,-1.71
2019-01-20T06:04:01.398Z,-1.79
2019-01-20T06:06:30.389Z,-1.53
2019-01-20T06:08:59.033Z,-1.73
2019-01-20T06:11:27.670Z,-1.71
2019-01-20T06:13:56.641Z,-1.75
2019-01-20T06:16:25.289Z,-1.80
2019-01-20T06:18:55.070Z,-1.87
2019-01-20T06:21:24.035Z,-1.85
2019-01-20T06:23:52.660Z,-1.91
2019-01-20T06:26:21.307Z,-1.80
2019-01-20T06:28:50.402Z,-1.79
2019-01-20T06:31:19.810Z,-1.82
2019-01-20T06:33:48.451Z,-1.83
2019-01-20T06:36:17.401Z,-1.79
2019-01-20T06:38:46.683Z,-1.80
2019-01-20T06:41:15.571Z,-1.75
2019-01-20T06:43:44.566Z,-1.81
2019-01-20T06:46:13.769Z,-1.87
2019-01-20T06:48:42.960Z,-1.84
2019-01-20T06:51:11.971Z,-1.72
2019-01-20T06:53:40.933Z,-1.70
2019-01-20T06:56:10.105Z,-1.70
2019-01-20T06:58:39.087Z,-1.67
2019-01-20T07:01:07.744Z,-1.66
2019-01-20T07:03:36.449Z,-1.54
2019-01-20T07:06:05.608Z,-1.60
2019-01-20T07:08:34.262Z,-1.53
2019-01-20T07:11:02.939Z,-1.43
2019-01-20T07:13:32.182Z,-1.54
2019-01-20T07:16:01.177Z,-1.60
2019-01-20T07:18:30.374Z,-1.50
2019-01-20T07:20:59.685Z,-1.58
2019-01-20T07:23:28.576Z,-1.55
2019-01-20T07:25:57.570Z,-1.66
2019-01-20T07:28:26.970Z,-1.67
2019-01-20T07:30:55.595Z,-1.57
2019-01-20T07:33:25.062Z,-1.58
2019-01-20T07:35:54.052Z,-1.47
2019-01-20T07:38:23.353Z,-1.41
2019-01-20T07:40:52.347Z,-1.44
2019-01-20T07:43:21.241Z,-1.44
2019-01-20T07:45:53.035Z,-1.50
2019-01-20T07:53:45.631Z,-1.47
2019-01-20T07:56:18.031Z,-1.31
2019-01-20T07:58:47.023Z,-1.27
2019-01-20T08:01:16.014Z,-1.28
2019-01-20T08:03:44.731Z,-1.54
2019-01-20T08:06:13.693Z,-1.57
2019-01-20T08:08:42.690Z,-1.65
2019-01-20T08:11:12.092Z,-1.41
2019-01-20T08:13:41.085Z,-1.45
2019-01-20T08:16:10.078Z,-1.31
2019-01-20T08:18:39.381Z,-1.37
2019-01-20T08:21:08.375Z,-1.38
2019-01-20T08:23:37.321Z,-1.31
2019-01-20T08:26:06.055Z,-1.37
2019-01-20T08:28:34.721Z,-1.42
2019-01-20T08:31:03.510Z,-1.41
2019-01-20T08:33:32.420Z,-1.44
2019-01-20T08:36:01.418Z,-1.35
2019-01-20T08:38:30.717Z,-1.35
2019-01-20T08:40:59.712Z,-1.46
2019-01-20T08:43:31.951Z,-1.41
2019-01-20T08:46:34.970Z,-1.38
2019-01-20T08:49:04.259Z,-1.37
2019-01-20T08:51:33.848Z,-1.43
2019-01-20T08:54:02.876Z,-1.39
2019-01-20T08:56:31.873Z,-1.34
2019-01-20T08:59:00.491Z,-1.38
2019-01-20T09:01:29.155Z,-1.44
2019-01-20T09:03:58.139Z,-1.61
2019-01-20T09:06:27.071Z,-1.57
2019-01-20T09:08:56.335Z,-1.49
2019-01-20T09:11:24.973Z,-1.32
2019-01-20T09:13:53.635Z,-1.23
2019-01-20T09:16:22.300Z,-1.13
2019-01-20T09:18:50.941Z,-1.38
2019-01-20T09:21:19.866Z,-1.27
2019-01-20T09:23:48.520Z,-1.46
2019-01-20T09:26:17.547Z,-1.45
2019-01-20T09:28:46.502Z,-1.32
2019-01-20T09:31:15.633Z,-1.34
2019-01-20T09:33:44.625Z,-1.24
2019-01-20T09:36:13.557Z,-1.33
2019-01-20T09:38:42.203Z,-1.31
2019-01-20T09:41:10.927Z,-1.29
2019-01-20T09:43:46.818Z,-1.36
2019-01-20T09:46:10.830Z,-1.28
2019-01-20T09:48:39.822Z,-1.27
2019-01-20T09:51:08.813Z,-1.21
2019-01-20T09:53:37.847Z,-1.52
2019-01-20T09:56:06.804Z,-1.50
2019-01-20T09:58:35.893Z,-1.47
2019-01-20T10:01:04.996Z,-1.59
2019-01-20T10:03:33.981Z,-1.57
2019-01-20T10:06:02.884Z,-1.57
2019-01-20T10:08:31.528Z,-1.51
2019-01-20T10:11:00.451Z,-1.39
2019-01-20T10:13:29.441Z,-1.45
2019-01-20T10:15:58.111Z,-1.40
2019-01-20T10:18:27.118Z,-1.57
2019-01-20T10:20:56.020Z,-1.42
2019-01-20T10:23:24.746Z,-1.43
2019-01-20T10:25:53.408Z,-1.36
2019-01-20T10:28:25.369Z,-1.30
2019-01-20T10:30:54.042Z,-1.34
2019-01-20T10:33:23.239Z,-1.42
2019-01-20T10:36:11.174Z,-1.37
2019-01-20T10:38:40.422Z,-1.45
2019-01-20T10:41:09.086Z,-1.34
2019-01-20T10:43:38.071Z,-1.31
2019-01-20T10:46:07.158Z,-1.40
2019-01-20T10:48:35.804Z,-1.46
2019-01-20T10:51:04.827Z,-1.50
2019-01-20T10:53:33.485Z,-1.57
2019-01-20T10:56:02.478Z,-1.44
2019-01-20T10:58:31.287Z,-1.46
2019-01-20T11:01:00.289Z,-1.34
2019-01-20T11:03:28.945Z,-1.27
2019-01-20T11:05:57.875Z,-1.47
2019-01-20T11:08:26.873Z,-0.98
2019-01-20T11:10:55.639Z,-1.34
2019-01-20T11:13:24.874Z,-1.31
2019-01-20T11:15:53.526Z,-1.16
2019-01-20T11:18:22.642Z,-1.20
2019-01-20T11:20:51.432Z,-1.28
2019-01-20T11:23:22.573Z,-1.25
2019-01-20T11:25:51.581Z,-1.22
2019-01-20T11:28:21.406Z,-1.13
2019-01-20T11:30:50.482Z,-1.15
2019-01-20T11:33:19.774Z,-1.07
2019-01-20T11:35:48.769Z,-0.93
2019-01-20T11:38:17.655Z,-1.18
2019-01-20T11:40:46.956Z,-1.12
2019-01-20T11:43:15.589Z,-1.15
2019-01-20T11:45:44.550Z,-1.00
2019-01-20T11:48:14.372Z,-0.91
2019-01-20T11:50:43.445Z,-1.06
2019-01-20T11:53:12.439Z,-1.18
2019-01-20T11:55:41.551Z,-1.05
2019-01-20T11:58:10.530Z,-0.84
2019-01-20T12:00:39.548Z,-1.08
2019-01-20T12:03:08.794Z,-1.01
2019-01-20T12:05:39.752Z,-1.01
2019-01-20T12:08:08.975Z,-1.09
2019-01-20T12:10:37.741Z,-1.13
2019-01-20T12:13:08.301Z,-1.21
2019-01-20T12:15:36.961Z,-1.19
2019-01-20T12:18:05.987Z,-1.21
2019-01-20T12:20:34.721Z,-1.12
2019-01-20T12:23:03.443Z,-1.33
2019-01-20T12:25:32.425Z,-1.43
2019-01-20T12:28:01.428Z,-1.14
2019-01-20T12:30:32.571Z,-1.10
2019-01-20T12:33:01.314Z,-1.13
2019-01-20T12:35:30.358Z,-1.01
2019-01-20T12:37:59.164Z,-1.21
2019-01-20T12:40:30.389Z,-1.07
2019-01-20T12:42:59.370Z,-1.05
2019-01-20T12:45:28.578Z,-1.13
2019-01-20T12:47:57.880Z,-1.00
2019-01-20T12:50:26.873Z,-1.06
2019-01-20T12:52:55.544Z,-1.01
2019-01-20T12:55:24.212Z,-1.04
2019-01-20T12:57:52.842Z,-0.98
2019-01-20T13:00:21.837Z,-1.01
2019-01-20T13:02:50.917Z,-1.02
2019-01-20T13:05:20.012Z,-1.19
2019-01-20T13:07:48.905Z,-1.20
2019-01-20T13:10:18.204Z,-0.91
2019-01-20T13:12:47.005Z,-0.96
2019-01-20T13:15:17.841Z,-0.98
2019-01-20T13:17:46.827Z,-1.15
2019-01-20T13:20:20.898Z,-1.24
2019-01-20T13:22:50.238Z,-1.22
2019-01-20T13:25:24.021Z,-1.13
2019-01-20T13:27:53.346Z,-0.86
2019-01-20T13:30:24.189Z,-1.09
2019-01-20T13:32:52.862Z,-1.12
2019-01-20T13:35:22.261Z,-1.07
2019-01-20T13:37:53.920Z,-1.24
2019-01-20T13:40:32.853Z,-1.11
2019-01-20T13:43:02.461Z,-1.36
2019-01-20T13:45:31.677Z,-1.01
2019-01-20T13:48:00.323Z,-1.10
2019-01-20T13:50:29.241Z,-1.20
2019-01-20T13:52:58.253Z,-1.18
2019-01-20T13:55:26.909Z,-1.16
2019-01-20T13:57:55.915Z,-1.05
2019-01-20T14:00:25.015Z,-1.05
2019-01-20T14:02:53.714Z,-1.10
2019-01-20T14:05:22.681Z,-1.07
2019-01-20T14:07:51.790Z,-1.17
2019-01-20T14:10:20.487Z,-1.35
2019-01-20T14:12:49.251Z,-1.41
2019-01-20T14:15:18.252Z,-1.44
2019-01-20T14:17:47.043Z,-1.42
2019-01-20T14:20:18.116Z,-1.26
2019-01-20T14:22:47.172Z,-1.03
2019-01-20T14:25:18.325Z,-0.63
2019-01-20T14:27:47.440Z,-0.76
2019-01-20T14:30:19.191Z,-0.82
2019-01-20T14:32:48.487Z,-0.76
2019-01-20T14:35:17.686Z,-0.74
2019-01-20T14:37:46.667Z,-0.75
2019-01-20T14:40:16.349Z,-1.21
2019-01-20T14:42:45.275Z,-1.15
2019-01-20T14:45:14.823Z,-0.87
2019-01-20T14:47:43.877Z,-1.04
2019-01-20T14:50:16.703Z,-0.96
2019-01-20T14:52:45.372Z,-1.10
2019-01-20T14:55:14.439Z,-1.27
2019-01-20T14:57:43.751Z,-1.09
2019-01-20T15:00:22.156Z,-1.29
2019-01-20T15:02:50.892Z,-1.21
2019-01-20T15:05:19.940Z,-1.23
2019-01-20T15:07:48.931Z,-1.23
2019-01-20T15:10:18.074Z,-1.26
2019-01-20T15:12:47.020Z,-0.97
2019-01-20T15:15:18.987Z,-0.90
2019-01-20T15:17:47.980Z,-1.11
2019-01-20T15:20:16.949Z,-0.98
2019-01-20T15:22:45.608Z,-1.10
2019-01-20T15:25:15.043Z,-1.08
2019-01-20T15:27:46.217Z,-1.03
2019-01-20T15:30:17.928Z,-1.16
2019-01-20T15:32:46.961Z,-1.15
2019-01-20T15:35:15.953Z,-1.18
2019-01-20T15:37:45.253Z,-1.25
2019-01-20T15:40:15.407Z,-1.19
2019-01-20T15:42:44.118Z,-1.33
2019-01-20T15:45:16.445Z,-1.15
2019-01-20T15:47:44.555Z,-1.18
2019-01-20T15:50:16.232Z,-1.27
2019-01-20T15:52:45.471Z,-1.34
2019-01-20T15:55:15.073Z,-1.06
2019-01-20T15:57:44.166Z,-1.23
2019-01-20T16:00:23.003Z,-1.32
2019-01-20T16:02:51.728Z,-1.17
2019-01-20T16:05:21.124Z,-1.23
2019-01-20T16:07:49.866Z,-1.24
2019-01-20T16:10:18.711Z,-1.42
2019-01-20T16:12:47.849Z,-1.49
2019-01-20T16:15:25.077Z,-1.70
2019-01-20T16:17:55.350Z,-1.68
2019-01-20T16:20:24.312Z,-1.62
2019-01-20T16:22:53.359Z,-1.59
2019-01-20T16:25:28.019Z,-1.52
2019-01-20T16:27:56.977Z,-1.49
2019-01-20T16:30:28.201Z,-1.38
2019-01-20T16:32:57.219Z,-1.45
2019-01-20T16:35:26.722Z,-1.50
2019-01-20T16:37:55.994Z,-1.51
2019-01-20T16:40:24.740Z,-1.57
2019-01-20T16:42:53.810Z,-1.54
2019-01-20T16:45:32.018Z,-1.39
2019-01-20T16:47:55.991Z,-1.52
2019-01-20T16:50:25.291Z,-1.38
2019-01-20T16:52:54.843Z,-1.38
2019-01-20T16:55:24.512Z,-1.34
2019-01-20T16:57:53.502Z,-1.34
2019-01-20T17:00:25.059Z,-1.55
2019-01-20T17:02:54.563Z,-1.62
2019-01-20T17:05:26.802Z,-1.55
2019-01-20T17:07:54.085Z,-1.36
2019-01-20T17:10:25.242Z,-1.29
2019-01-20T17:12:54.259Z,-1.29
2019-01-20T17:15:28.856Z,-1.44
2019-01-20T17:17:57.672Z,-1.41
2019-01-20T17:20:26.832Z,-1.21
2019-01-20T17:22:56.238Z,-1.23
2019-01-20T17:25:24.965Z,-1.31
2019-01-20T17:27:54.224Z,-1.43
2019-01-20T17:30:25.445Z,-1.50
2019-01-20T17:32:54.762Z,-1.30
2019-01-20T17:35:23.766Z,-1.34
2019-01-20T17:37:52.539Z,-1.23
2019-01-20T17:40:23.507Z,-1.20
2019-01-20T17:42:52.601Z,-1.10
2019-01-20T17:45:24.054Z,-1.55
2019-01-20T17:47:53.458Z,-1.39
2019-01-20T17:50:28.297Z,-1.45
2019-01-20T17:52:57.412Z,-1.53
2019-01-20T17:55:28.186Z,-1.61
2019-01-20T17:57:57.152Z,-1.84
2019-01-20T18:00:40.539Z,-1.71
2019-01-20T18:03:09.915Z,-1.63
2019-01-20T18:05:38.946Z,-1.52
2019-01-20T18:08:07.811Z,-1.58
2019-01-20T18:10:36.557Z,-1.50
2019-01-20T18:13:05.886Z,-1.55
2019-01-20T18:15:35.028Z,-1.63
2019-01-20T18:18:03.748Z,-1.68
2019-01-20T18:20:34.138Z,-1.53
2019-01-20T18:23:02.876Z,-1.37
2019-01-20T18:25:31.666Z,-1.35
2019-01-20T18:28:00.695Z,-1.46
2019-01-20T18:30:30.214Z,-1.52
2019-01-20T18:32:59.415Z,-1.68
2019-01-20T18:35:28.242Z,-1.73
2019-01-20T18:37:57.289Z,-1.66
2019-01-20T18:40:26.188Z,-1.70
2019-01-20T18:42:55.677Z,-1.82
2019-01-20T18:45:26.974Z,-1.88
2019-01-20T18:47:56.434Z,-1.93
2019-01-20T18:50:30.669Z,-1.89
2019-01-20T18:52:59.486Z,-1.88
2019-01-20T18:55:28.537Z,-1.83
2019-01-20T18:57:57.305Z,-1.87
2019-01-20T19:00:55.445Z,-1.92
2019-01-20T19:03:24.133Z,-1.75
2019-01-20T19:05:53.080Z,-1.81
2019-01-20T19:08:21.723Z,-1.81
2019-01-20T19:10:50.756Z,-1.84
2019-01-20T19:13:19.425Z,-1.75
2019-01-20T19:15:48.429Z,-1.96
2019-01-20T19:18:19.223Z,-1.95
2019-01-20T19:20:47.555Z,-1.94
2019-01-20T19:23:16.488Z,-1.86
2019-01-20T19:25:45.543Z,-1.89
2019-01-20T19:28:14.322Z,-1.80
2019-01-20T19:30:43.319Z,-1.69
2019-01-20T19:33:12.085Z,-1.62
2019-01-20T19:35:41.002Z,-1.55
2019-01-20T19:38:10.096Z,-1.79
2019-01-20T19:40:39.089Z,-1.77
2019-01-20T19:43:08.118Z,-1.84
2019-01-20T19:45:37.191Z,-1.73
2019-01-20T19:48:05.860Z,-1.68
2019-01-20T19:50:34.902Z,-1.72
2019-01-20T19:53:04.063Z,-1.70
2019-01-20T19:55:35.710Z,-1.81
2019-01-20T19:58:04.717Z,-1.76
2019-01-20T20:00:33.805Z,-1.69
2019-01-20T20:03:02.478Z,-1.89
2019-01-20T20:05:31.894Z,-2.12
2019-01-20T20:08:00.902Z,-2.11
2019-01-20T20:10:29.709Z,-1.99
2019-01-20T20:12:59.296Z,-1.96
2019-01-20T20:15:28.703Z,-2.03
2019-01-20T20:17:57.706Z,-2.03
2019-01-20T20:20:26.831Z,-2.00
2019-01-20T20:22:55.863Z,-1.97
2019-01-20T20:25:25.707Z,-1.90
2019-01-20T20:27:54.703Z,-1.92
2019-01-20T20:30:28.447Z,-1.97
2019-01-20T20:32:57.392Z,-2.03
2019-01-20T20:35:26.160Z,-1.81
2019-01-20T20:37:55.169Z,-1.83
2019-01-20T20:40:23.833Z,-1.78
2019-01-20T20:42:52.656Z,-1.65
2019-01-20T20:45:22.735Z,-1.42
2019-01-20T20:47:51.477Z,-1.72
2019-01-20T20:50:20.323Z,-1.61
2019-01-20T20:52:49.335Z,-1.58
2019-01-20T20:55:17.959Z,-1.35
2019-01-20T20:57:49.694Z,-1.64
2019-01-20T21:00:27.474Z,-1.62
2019-01-20T21:02:56.469Z,-1.67
2019-01-20T21:05:25.561Z,-1.79
2019-01-20T21:07:54.272Z,-1.79
2019-01-20T21:10:23.464Z,-1.79
2019-01-20T21:12:52.289Z,-1.51
2019-01-20T21:15:21.336Z,-1.64
2019-01-20T21:17:50.026Z,-1.89
2019-01-20T21:20:20.247Z,-1.69
2019-01-20T21:22:49.337Z,-1.81
2019-01-20T21:25:18.344Z,-2.01
2019-01-20T21:27:47.423Z,-1.84
2019-01-20T21:30:21.639Z,-1.86
2019-01-20T21:32:50.635Z,-2.08
2019-01-20T21:35:19.381Z,-2.27
2019-01-20T21:37:48.052Z,-2.15
2019-01-20T21:40:17.422Z,-2.11
2019-01-20T21:42:46.233Z,-1.89
2019-01-20T21:45:15.808Z,-1.91
2019-01-20T21:47:44.811Z,-2.16
2019-01-20T21:50:24.765Z,-2.13
2019-01-20T21:52:53.754Z,-2.28
2019-01-20T21:55:22.745Z,-2.31
2019-01-20T21:57:51.422Z,-2.39
2019-01-20T22:00:22.317Z,-2.29
2019-01-20T22:02:51.364Z,-2.26
2019-01-20T22:05:20.663Z,-2.08
2019-01-20T22:07:49.688Z,-2.19
2019-01-20T22:10:20.296Z,-2.03
2019-01-20T22:12:49.048Z,-2.16
2019-01-20T22:15:17.897Z,-2.28
2019-01-20T22:17:47.688Z,-2.20
2019-01-20T22:20:18.343Z,-2.27
2019-01-20T22:22:47.085Z,-2.12
2019-01-20T22:25:16.198Z,-2.21
2019-01-20T22:27:44.921Z,-2.22
2019-01-20T22:30:16.092Z,-2.30
2019-01-20T22:32:45.113Z,-2.26
2019-01-20T22:35:15.344Z,-2.32
2019-01-20T22:37:43.986Z,-2.35
2019-01-20T22:40:13.945Z,-2.09
2019-01-20T22:42:42.937Z,-2.04
2019-01-20T22:45:13.950Z,-2.10
2019-01-20T22:47:42.873Z,-2.03
2019-01-20T22:50:12.804Z,-1.99
2019-01-20T22:52:41.876Z,-2.03
2019-01-20T22:55:12.205Z,-2.17
2019-01-20T22:57:41.106Z,-2.37
2019-01-20T23:00:18.340Z,-2.28
2019-01-20T23:02:46.992Z,-2.34
2019-01-20T23:05:15.965Z,-2.64
2019-01-20T23:07:44.634Z,-2.56
2019-01-20T23:10:13.028Z,-2.65
2019-01-20T23:12:41.682Z,-2.83
2019-01-20T23:15:10.428Z,-2.76
2019-01-20T23:17:39.804Z,-2.56
2019-01-20T23:20:10.856Z,-2.49
2019-01-20T23:22:39.847Z,-2.48
2019-01-20T23:25:08.937Z,-2.40
2019-01-20T23:27:38.004Z,-2.48
2019-01-20T23:30:08.000Z,-2.50
2019-01-20T23:32:37.251Z,-2.39
2019-01-20T23:35:06.324Z,-2.36
2019-01-20T23:37:35.237Z,-2.64
2019-01-20T23:40:04.864Z,-2.91
2019-01-20T23:42:34.250Z,-2.88
2019-01-20T23:45:02.880Z,-2.86
2019-01-20T23:47:31.608Z,-3.07
2019-01-20T23:50:00.513Z,-3.03
2019-01-20T23:52:29.813Z,-2.81
2019-01-20T23:54:58.705Z,-2.89
2019-01-20T23:57:27.359Z,-2.91
2019-01-20T23:59:56.284Z,-2.95
